createdAt,value
2018-04-17T00:00:06.488Z,69.72
2018-04-17T00:02:38.999Z,69.87
2018-04-17T00:05:11.528Z,69.62
2018-04-17T00:07:44.111Z,69.71
2018-04-17T00:10:16.630Z,70.46
2018-04-17T00:12:49.123Z,70.80
2018-04-17T00:15:21.637Z,70.73
2018-04-17T00:17:54.128Z,70.54
2018-04-17T00:20:26.643Z,70.18
2018-04-17T00:22:59.137Z,70.66
2018-04-17T00:25:31.703Z,70.51
2018-04-17T00:28:04.198Z,70.58
2018-04-17T00:30:36.707Z,70.67
2018-04-17T00:33:09.255Z,70.19
2018-04-17T00:35:41.841Z,70.24
2018-04-17T00:38:14.332Z,70.14
2018-04-17T00:40:46.856Z,70.35
2018-04-17T00:43:19.352Z,69.77
2018-04-17T00:45:51.879Z,70.16
2018-04-17T00:48:24.370Z,69.96
2018-04-17T00:50:56.905Z,70.14
2018-04-17T00:53:41.205Z,70.43
2018-04-17T00:56:13.806Z,70.56
2018-04-17T00:58:46.299Z,70.46
2018-04-17T01:01:18.823Z,70.40
2018-04-17T01:03:51.378Z,70.42
2018-04-17T01:06:24.935Z,70.44
2018-04-17T01:08:57.436Z,70.73
2018-04-17T01:11:30.683Z,70.91
2018-04-17T01:14:03.172Z,70.87
2018-04-17T01:16:35.763Z,70.74
2018-04-17T01:19:08.336Z,70.82
2018-04-17T01:21:40.866Z,70.93
2018-04-17T01:24:13.371Z,70.92
2018-04-17T01:26:45.890Z,71.17
2018-04-17T01:29:18.444Z,71.11
2018-04-17T01:31:50.955Z,71.36
2018-04-17T01:34:23.447Z,71.15
2018-04-17T01:36:55.961Z,71.02
2018-04-17T01:39:28.468Z,71.09
2018-04-17T01:42:00.997Z,71.07
2018-04-17T01:44:33.586Z,70.42
2018-04-17T01:47:06.107Z,70.78
2018-04-17T01:49:38.602Z,70.89
2018-04-17T01:52:11.112Z,70.76
2018-04-17T01:54:43.599Z,70.70
2018-04-17T01:57:16.203Z,70.66
2018-04-17T01:59:48.710Z,70.79
2018-04-17T02:02:21.271Z,70.73
2018-04-17T02:04:53.769Z,70.69
2018-04-17T02:07:26.278Z,70.65
2018-04-17T02:09:58.843Z,70.70
2018-04-17T02:12:31.376Z,70.66
2018-04-17T02:15:03.878Z,70.66
2018-04-17T02:17:36.476Z,70.63
2018-04-17T02:20:09.063Z,70.47
2018-04-17T02:22:41.572Z,70.55
2018-04-17T02:25:14.064Z,70.63
2018-04-17T02:27:46.571Z,70.56
2018-04-17T02:30:19.084Z,70.58
2018-04-17T02:32:51.691Z,70.59
2018-04-17T02:35:24.188Z,70.87
2018-04-17T02:37:56.708Z,71.07
2018-04-17T02:40:29.243Z,70.90
2018-04-17T02:43:02.672Z,70.70
2018-04-17T02:45:35.238Z,70.71
2018-04-17T02:48:07.747Z,70.60
2018-04-17T02:50:40.276Z,70.63
2018-04-17T02:53:12.787Z,70.56
2018-04-17T02:55:45.286Z,70.27
2018-04-17T02:58:17.808Z,70.29
2018-04-17T03:00:50.334Z,70.17
2018-04-17T03:03:22.926Z,69.93
2018-04-17T03:05:55.451Z,70.16
2018-04-17T03:08:27.951Z,70.31
2018-04-17T03:11:00.455Z,70.28
2018-04-17T03:13:32.946Z,70.17
2018-04-17T03:16:05.462Z,70.19
2018-04-17T03:18:37.970Z,70.23
2018-04-17T03:21:10.483Z,70.21
2018-04-17T03:23:42.970Z,70.24
2018-04-17T03:26:16.394Z,70.21
2018-04-17T03:28:48.887Z,70.32
2018-04-17T03:31:21.402Z,70.12
2018-04-17T03:33:53.894Z,69.76
2018-04-17T03:36:26.439Z,69.82
2018-04-17T03:38:58.930Z,69.61
2018-04-17T03:41:31.442Z,69.47
2018-04-17T03:44:03.924Z,69.42
2018-04-17T03:46:36.475Z,69.44
2018-04-17T03:49:08.963Z,69.43
2018-04-17T03:51:41.538Z,69.44
2018-04-17T03:54:14.028Z,69.35
2018-04-17T03:56:46.540Z,69.86
2018-04-17T03:59:19.099Z,70.04
2018-04-17T04:01:51.687Z,70.36
2018-04-17T04:04:24.179Z,70.17
2018-04-17T04:06:56.759Z,69.83
2018-04-17T04:09:29.250Z,69.97
2018-04-17T04:12:01.832Z,69.73
2018-04-17T04:14:34.429Z,69.97
2018-04-17T04:17:18.983Z,69.79
2018-04-17T04:20:03.452Z,69.95
2018-04-17T04:22:48.014Z,69.57
2018-04-17T04:25:43.368Z,69.76
2018-04-17T04:28:15.873Z,69.49
2018-04-17T04:30:48.403Z,68.98
2018-04-17T04:33:20.991Z,69.04
2018-04-17T04:35:53.479Z,69.15
2018-04-17T04:38:26.055Z,68.93
2018-04-17T04:40:58.551Z,68.58
2018-04-17T04:43:31.055Z,68.49
2018-04-17T04:46:03.628Z,68.95
2018-04-17T04:48:36.138Z,68.90
2018-04-17T04:51:08.632Z,69.25
2018-04-17T04:53:41.143Z,69.18
2018-04-17T04:56:13.631Z,69.34
2018-04-17T04:58:46.139Z,69.10
2018-04-17T05:01:18.628Z,68.97
2018-04-17T05:03:51.132Z,69.56
2018-04-17T05:06:23.630Z,70.11
2018-04-17T05:08:56.220Z,69.82
2018-04-17T05:11:28.726Z,70.61
2018-04-17T05:14:01.547Z,70.18
2018-04-17T05:16:34.040Z,69.36
2018-04-17T05:19:06.625Z,67.90
2018-04-17T05:21:39.132Z,68.65
2018-04-17T05:24:11.668Z,68.32
2018-04-17T05:26:44.186Z,65.46
2018-04-17T05:29:16.722Z,63.92
2018-04-17T05:31:49.867Z,61.73
2018-04-17T05:34:22.452Z,63.20
2018-04-17T05:36:55.046Z,59.70
2018-04-17T05:39:27.571Z,56.67
2018-04-17T05:42:00.092Z,57.78
2018-04-17T05:44:32.619Z,58.35
2018-04-17T05:47:05.118Z,58.78
2018-04-17T05:49:37.656Z,62.04
2018-04-17T05:52:10.158Z,64.44
2018-04-17T05:54:42.687Z,63.05
2018-04-17T05:57:15.181Z,61.65
2018-04-17T05:59:47.692Z,60.80
2018-04-17T06:02:20.281Z,62.02
2018-04-17T06:04:52.786Z,63.15
2018-04-17T06:07:25.286Z,63.18
2018-04-17T06:09:57.830Z,63.47
2018-04-17T06:12:30.345Z,62.65
2018-04-17T06:15:02.836Z,62.57
2018-04-17T06:17:35.357Z,64.30
2018-04-17T06:20:07.847Z,62.21
2018-04-17T06:22:40.355Z,60.69
2018-04-17T06:25:12.855Z,62.02
2018-04-17T06:27:45.428Z,61.99
2018-04-17T06:30:17.928Z,63.58
2018-04-17T06:32:50.500Z,64.00
2018-04-17T06:35:23.000Z,65.36
2018-04-17T06:37:55.522Z,65.47
2018-04-17T06:40:28.056Z,64.79
2018-04-17T06:43:00.578Z,63.58
2018-04-17T06:45:33.091Z,65.59
2018-04-17T06:48:05.608Z,64.06
2018-04-17T06:50:38.109Z,63.52
2018-04-17T06:53:10.623Z,64.67
2018-04-17T06:55:43.119Z,63.27
2018-04-17T06:58:15.655Z,65.01
2018-04-17T07:00:48.146Z,64.83
2018-04-17T07:03:20.705Z,64.59
2018-04-17T07:05:53.203Z,64.43
2018-04-17T07:08:25.799Z,65.23
2018-04-17T07:10:58.372Z,63.62
2018-04-17T07:13:30.973Z,63.73
2018-04-17T07:16:03.558Z,64.07
2018-04-17T07:18:36.067Z,64.16
2018-04-17T07:21:08.557Z,61.13
2018-04-17T07:23:41.104Z,63.01
2018-04-17T07:26:13.598Z,64.62
2018-04-17T07:28:46.143Z,62.01
2018-04-17T07:31:18.636Z,60.11
2018-04-17T07:33:51.148Z,62.44
2018-04-17T07:36:23.642Z,61.48
2018-04-17T07:38:56.159Z,62.04
2018-04-17T07:41:28.654Z,62.70
2018-04-17T07:44:01.175Z,60.95
2018-04-17T07:46:33.694Z,60.35
2018-04-17T07:49:07.084Z,60.45
2018-04-17T07:51:39.687Z,58.82
2018-04-17T07:54:12.424Z,61.11
2018-04-17T07:56:44.927Z,58.72
2018-04-17T07:59:17.448Z,60.24
2018-04-17T08:01:50.016Z,60.41
2018-04-17T08:04:22.637Z,56.97
2018-04-17T08:06:55.151Z,58.42
2018-04-17T08:09:27.673Z,56.93
2018-04-17T08:12:00.804Z,57.49
2018-04-17T08:14:33.328Z,56.82
2018-04-17T08:17:05.820Z,55.51
2018-04-17T08:19:38.339Z,56.81
2018-04-17T08:22:10.842Z,56.75
2018-04-17T08:24:43.362Z,57.29
2018-04-17T08:27:15.898Z,55.97
2018-04-17T08:29:48.475Z,54.51
2018-04-17T08:32:21.066Z,54.71
2018-04-17T08:34:53.646Z,55.36
2018-04-17T08:37:26.139Z,53.86
2018-04-17T08:39:58.717Z,53.22
2018-04-17T08:42:31.922Z,53.09
2018-04-17T08:45:04.431Z,49.10
2018-04-17T08:47:36.922Z,52.07
2018-04-17T08:50:09.444Z,52.44
2018-04-17T08:52:41.962Z,53.46
2018-04-17T08:55:14.479Z,53.48
2018-04-17T08:57:47.030Z,53.48
2018-04-17T09:00:19.548Z,52.85
2018-04-17T09:02:52.046Z,52.22
2018-04-17T09:05:24.559Z,52.23
2018-04-17T09:07:57.058Z,48.85
2018-04-17T09:10:29.724Z,49.09
2018-04-17T09:13:02.515Z,51.73
2018-04-17T09:15:35.048Z,52.21
2018-04-17T09:18:07.614Z,50.22
2018-04-17T09:20:40.135Z,51.54
2018-04-17T09:23:12.636Z,50.54
2018-04-17T09:25:45.163Z,48.83
2018-04-17T09:28:17.656Z,47.03
2018-04-17T09:30:50.175Z,49.13
2018-04-17T09:33:22.699Z,49.04
2018-04-17T09:35:55.219Z,48.41
2018-04-17T09:38:27.804Z,46.30
2018-04-17T09:41:01.159Z,46.86
2018-04-17T09:43:33.663Z,46.84
2018-04-17T09:46:06.179Z,46.90
2018-04-17T09:48:38.672Z,47.57
2018-04-17T09:51:11.187Z,48.08
2018-04-17T09:53:43.681Z,48.57
2018-04-17T09:56:16.195Z,49.42
2018-04-17T09:58:48.696Z,48.14
2018-04-17T10:01:22.099Z,46.29
2018-04-17T10:03:54.582Z,50.39
2018-04-17T10:06:27.104Z,47.27
2018-04-17T10:09:00.401Z,45.56
2018-04-17T10:11:32.795Z,44.67
2018-04-17T10:14:05.299Z,44.11
2018-04-17T10:16:37.830Z,44.03
2018-04-17T10:19:10.403Z,44.87
2018-04-17T10:21:42.916Z,44.76
2018-04-17T10:24:15.463Z,41.40
2018-04-17T10:26:47.981Z,38.43
2018-04-17T10:29:20.491Z,45.78
2018-04-17T10:31:52.978Z,40.92
2018-04-17T10:34:25.500Z,42.33
2018-04-17T10:36:58.083Z,43.56
2018-04-17T10:39:30.932Z,40.27
2018-04-17T10:42:03.422Z,40.21
2018-04-17T10:44:35.961Z,42.51
2018-04-17T10:47:08.464Z,42.27
2018-04-17T10:49:41.023Z,41.72
2018-04-17T10:52:13.611Z,42.49
2018-04-17T10:54:46.131Z,42.47
2018-04-17T10:57:18.629Z,41.86
2018-04-17T10:59:51.164Z,40.89
2018-04-17T11:02:23.662Z,41.16
2018-04-17T11:04:56.180Z,42.17
2018-04-17T11:07:28.678Z,42.70
2018-04-17T11:10:01.880Z,41.44
2018-04-17T11:12:34.370Z,40.88
2018-04-17T11:15:06.893Z,40.12
2018-04-17T11:17:39.388Z,39.75
2018-04-17T11:20:11.963Z,37.45
2018-04-17T11:22:44.458Z,36.49
2018-04-17T11:25:16.967Z,39.23
2018-04-17T11:27:49.507Z,38.62
2018-04-17T11:30:22.096Z,35.63
2018-04-17T11:32:54.598Z,39.21
2018-04-17T11:35:27.119Z,35.01
2018-04-17T11:37:59.904Z,39.45
2018-04-17T11:40:32.423Z,38.82
2018-04-17T11:43:04.917Z,38.28
2018-04-17T11:45:37.454Z,39.16
2018-04-17T11:48:10.063Z,37.12
2018-04-17T11:50:42.574Z,40.87
2018-04-17T11:53:15.061Z,40.39
2018-04-17T11:55:47.576Z,40.39
2018-04-17T11:58:20.071Z,38.40
2018-04-17T12:00:52.588Z,39.54
2018-04-17T12:03:25.083Z,38.48
2018-04-17T12:05:57.612Z,36.24
2018-04-17T12:08:30.238Z,39.37
2018-04-17T12:11:02.763Z,37.29
2018-04-17T12:13:35.280Z,37.34
2018-04-17T12:16:07.829Z,36.81
2018-04-17T12:18:40.334Z,37.17
2018-04-17T12:21:12.848Z,37.49
2018-04-17T12:23:45.342Z,35.57
2018-04-17T12:26:17.863Z,34.94
2018-04-17T12:28:50.351Z,37.12
2018-04-17T12:31:22.902Z,32.11
2018-04-17T12:33:55.400Z,34.56
2018-04-17T12:36:27.911Z,34.80
2018-04-17T12:39:00.970Z,28.07
2018-04-17T12:41:33.488Z,30.48
2018-04-17T12:44:06.079Z,26.60
2018-04-17T12:46:38.601Z,25.30
2018-04-17T12:49:11.091Z,25.83
2018-04-17T12:51:43.625Z,24.10
2018-04-17T12:54:16.124Z,24.84
2018-04-17T12:56:48.709Z,27.19
2018-04-17T12:59:21.196Z,29.16
2018-04-17T13:01:53.717Z,25.66
2018-04-17T13:04:26.255Z,24.53
2018-04-17T13:06:58.767Z,23.96
2018-04-17T13:09:32.236Z,24.04
2018-04-17T13:12:04.827Z,27.68
2018-04-17T13:14:37.420Z,29.42
2018-04-17T13:17:10.011Z,29.13
2018-04-17T13:19:42.588Z,30.65
2018-04-17T13:22:16.890Z,28.23
2018-04-17T13:24:49.393Z,25.68
2018-04-17T13:27:21.911Z,23.36
2018-04-17T13:29:54.470Z,25.18
2018-04-17T13:32:27.055Z,22.54
2018-04-17T13:34:59.819Z,25.86
2018-04-17T13:37:32.436Z,23.65
2018-04-17T13:40:05.029Z,24.82
2018-04-17T13:42:37.552Z,24.88
2018-04-17T13:45:10.099Z,26.07
2018-04-17T13:47:42.604Z,27.01
2018-04-17T13:50:15.159Z,27.86
2018-04-17T13:52:47.661Z,27.48
2018-04-17T13:55:20.185Z,28.42
2018-04-17T13:57:52.680Z,29.22
2018-04-17T14:00:25.193Z,30.10
2018-04-17T14:02:57.776Z,29.61
2018-04-17T14:05:30.941Z,27.24
2018-04-17T14:08:03.480Z,29.95
2018-04-17T14:10:36.032Z,29.74
2018-04-17T14:13:08.632Z,28.36
2018-04-17T14:15:41.151Z,31.23
2018-04-17T14:18:13.649Z,31.08
2018-04-17T14:20:46.171Z,31.23
2018-04-17T14:23:18.671Z,29.45
2018-04-17T14:25:51.196Z,30.43
2018-04-17T14:28:23.691Z,30.74
2018-04-17T14:30:56.235Z,30.16
2018-04-17T14:33:28.765Z,31.67
2018-04-17T14:36:02.118Z,33.48
2018-04-17T14:38:34.611Z,32.23
2018-04-17T14:41:07.171Z,32.82
2018-04-17T14:43:39.727Z,31.35
2018-04-17T14:46:12.488Z,32.28
2018-04-17T14:48:45.000Z,32.93
2018-04-17T14:51:17.520Z,31.91
2018-04-17T14:53:50.015Z,32.65
2018-04-17T14:56:22.525Z,32.46
2018-04-17T14:58:55.100Z,33.46
2018-04-17T15:01:27.670Z,33.59
2018-04-17T15:04:00.220Z,33.04
2018-04-17T15:06:32.745Z,33.00
2018-04-17T15:09:07.194Z,33.31
2018-04-17T15:11:39.774Z,33.75
2018-04-17T15:14:12.269Z,32.70
2018-04-17T15:16:44.793Z,31.90
2018-04-17T15:19:17.298Z,32.34
2018-04-17T15:21:50.523Z,32.53
2018-04-17T15:24:23.019Z,33.47
2018-04-17T15:26:55.527Z,33.97
2018-04-17T15:29:28.016Z,33.83
2018-04-17T15:32:00.866Z,33.31
2018-04-17T15:34:33.374Z,33.63
2018-04-17T15:37:05.882Z,33.93
2018-04-17T15:39:38.428Z,32.21
2018-04-17T15:42:11.010Z,33.73
2018-04-17T15:44:43.595Z,33.29
2018-04-17T15:47:16.184Z,33.51
2018-04-17T15:49:48.681Z,32.91
2018-04-17T15:52:21.200Z,31.64
2018-04-17T15:54:53.690Z,32.17
2018-04-17T15:57:26.203Z,33.19
2018-04-17T15:59:58.702Z,33.68
2018-04-17T16:02:31.804Z,31.91
2018-04-17T16:05:04.299Z,33.03
2018-04-17T16:07:36.890Z,33.37
2018-04-17T16:10:09.488Z,31.62
2018-04-17T16:12:42.018Z,32.46
2018-04-17T16:15:14.520Z,32.61
2018-04-17T16:17:47.329Z,32.02
2018-04-17T16:20:20.256Z,32.99
2018-04-17T16:22:52.960Z,33.82
2018-04-17T16:25:25.479Z,34.35
2018-04-17T16:27:58.002Z,34.36
2018-04-17T16:30:30.854Z,35.43
2018-04-17T16:33:03.441Z,34.36
2018-04-17T16:35:36.045Z,34.65
2018-04-17T16:38:08.551Z,33.25
2018-04-17T16:40:41.097Z,34.74
2018-04-17T16:43:13.623Z,35.00
2018-04-17T16:45:46.128Z,35.83
2018-04-17T16:48:18.650Z,36.56
2018-04-17T16:50:51.365Z,36.70
2018-04-17T16:53:24.182Z,36.83
2018-04-17T16:55:56.760Z,36.14
2018-04-17T16:58:30.170Z,36.22
2018-04-17T17:01:02.815Z,36.60
2018-04-17T17:03:35.401Z,37.71
2018-04-17T17:06:07.983Z,38.53
2018-04-17T17:08:40.494Z,37.63
2018-04-17T17:11:13.091Z,38.26
2018-04-17T17:13:45.696Z,39.02
2018-04-17T17:16:18.224Z,39.80
2018-04-17T17:18:50.716Z,40.30
2018-04-17T17:21:23.227Z,40.58
2018-04-17T17:23:55.717Z,41.53
2018-04-17T17:26:28.239Z,41.27
2018-04-17T17:29:00.733Z,41.91
2018-04-17T17:31:33.270Z,42.15
2018-04-17T17:34:05.763Z,41.87
2018-04-17T17:36:38.272Z,42.17
2018-04-17T17:39:10.776Z,42.37
2018-04-17T17:41:43.300Z,42.73
2018-04-17T17:44:15.795Z,43.54
2018-04-17T17:46:48.452Z,44.12
2018-04-17T17:49:20.968Z,43.83
2018-04-17T17:51:53.475Z,44.13
2018-04-17T17:54:25.968Z,45.58
2018-04-17T17:56:58.510Z,46.88
2018-04-17T17:59:31.978Z,47.97
2018-04-17T18:02:04.499Z,48.33
2018-04-17T18:04:37.023Z,48.52
2018-04-17T18:07:09.560Z,48.67
2018-04-17T18:09:42.054Z,48.86
2018-04-17T18:12:15.005Z,49.09
2018-04-17T18:14:47.697Z,49.20
2018-04-17T18:17:20.404Z,49.52
2018-04-17T18:19:55.394Z,50.35
2018-04-17T18:22:27.903Z,50.17
2018-04-17T18:25:01.607Z,50.27
2018-04-17T18:27:34.153Z,50.19
2018-04-17T18:30:06.684Z,51.08
2018-04-17T18:32:39.230Z,50.70
2018-04-17T18:35:11.760Z,51.37
2018-04-17T18:37:44.343Z,52.00
2018-04-17T18:40:16.843Z,52.34
2018-04-17T18:42:49.421Z,51.42
2018-04-17T18:45:21.939Z,52.18
2018-04-17T18:47:54.479Z,52.14
2018-04-17T18:50:27.081Z,53.11
2018-04-17T18:53:00.014Z,52.23
2018-04-17T18:55:32.540Z,52.95
2018-04-17T18:58:05.067Z,53.90
2018-04-17T19:00:37.604Z,53.15
2018-04-17T19:03:10.167Z,53.71
2018-04-17T19:05:42.648Z,54.24
2018-04-17T19:08:15.154Z,53.97
2018-04-17T19:10:47.643Z,54.15
2018-04-17T19:13:20.147Z,54.12
2018-04-17T19:15:52.719Z,53.86
2018-04-17T19:18:25.310Z,54.33
2018-04-17T19:20:58.366Z,55.12
2018-04-17T19:23:30.923Z,55.31
2018-04-17T19:26:03.416Z,55.58
2018-04-17T19:28:35.949Z,54.69
2018-04-17T19:31:08.471Z,55.40
2018-04-17T19:33:40.991Z,54.74
2018-04-17T19:36:13.482Z,56.25
2018-04-17T19:38:45.988Z,55.78
2018-04-17T19:41:18.476Z,54.82
2018-04-17T19:43:50.991Z,54.67
2018-04-17T19:46:23.549Z,55.84
2018-04-17T19:48:56.070Z,55.92
2018-04-17T19:51:28.608Z,56.27
2018-04-17T19:54:01.719Z,56.55
2018-04-17T19:56:38.498Z,56.91
2018-04-17T19:59:11.130Z,56.95
2018-04-17T20:01:43.627Z,57.24
2018-04-17T20:04:16.154Z,56.99
2018-04-17T20:06:48.697Z,56.71
2018-04-17T20:09:21.291Z,57.08
2018-04-17T20:11:53.799Z,56.99
2018-04-17T20:14:26.325Z,56.46
2018-04-17T20:16:58.875Z,57.72
2018-04-17T20:19:32.546Z,57.72
2018-04-17T20:22:05.073Z,56.78
2018-04-17T20:24:37.643Z,57.36
2018-04-17T20:27:10.247Z,57.10
2018-04-17T20:29:42.766Z,57.50
2018-04-17T20:32:15.258Z,57.23
2018-04-17T20:34:47.788Z,57.83
2018-04-17T20:37:20.270Z,58.08
2018-04-17T20:39:52.777Z,58.16
2018-04-17T20:42:25.272Z,58.87
2018-04-17T20:44:57.788Z,58.08
2018-04-17T20:47:30.659Z,57.78
2018-04-17T20:50:03.170Z,57.70
2018-04-17T20:52:35.691Z,58.13
2018-04-17T20:55:08.205Z,58.57
2018-04-17T20:57:40.694Z,58.37
2018-04-17T21:00:13.209Z,57.65
2018-04-17T21:02:45.729Z,58.35
2018-04-17T21:05:18.240Z,58.20
2018-04-17T21:07:50.732Z,57.46
2018-04-17T21:10:23.243Z,58.14
2018-04-17T21:12:55.770Z,58.78
2018-04-17T21:15:28.444Z,58.54
2018-04-17T21:18:00.934Z,58.30
2018-04-17T21:20:33.447Z,58.67
2018-04-17T21:23:05.947Z,58.17
2018-04-17T21:25:38.482Z,58.56
2018-04-17T21:28:11.075Z,58.91
2018-04-17T21:30:43.650Z,59.24
2018-04-17T21:33:16.135Z,58.93
2018-04-17T21:35:48.654Z,58.69
2018-04-17T21:38:21.150Z,57.87
2018-04-17T21:40:53.685Z,57.75
2018-04-17T21:43:26.179Z,58.03
2018-04-17T21:45:58.760Z,58.25
2018-04-17T21:48:31.847Z,59.65
2018-04-17T21:51:04.362Z,59.88
2018-04-17T21:53:36.862Z,59.64
2018-04-17T21:56:09.517Z,60.11
2018-04-17T21:58:42.023Z,59.51
2018-04-17T22:01:14.578Z,60.03
2018-04-17T22:03:47.162Z,59.87
2018-04-17T22:06:19.683Z,59.51
2018-04-17T22:08:52.176Z,59.59
2018-04-17T22:11:24.697Z,59.94
2018-04-17T22:13:57.191Z,60.06
2018-04-17T22:16:29.784Z,60.36
2018-04-17T22:19:02.294Z,60.39
2018-04-17T22:21:34.807Z,60.56
2018-04-17T22:24:07.305Z,60.49
2018-04-17T22:26:39.832Z,60.66
2018-04-17T22:29:12.409Z,60.32
2018-04-17T22:31:44.996Z,59.80
2018-04-17T22:34:17.623Z,59.22
2018-04-17T22:36:50.201Z,59.88
2018-04-17T22:39:22.731Z,59.40
2018-04-17T22:41:55.304Z,59.16
2018-04-17T22:44:27.831Z,59.37
2018-04-17T22:47:01.257Z,59.61
2018-04-17T22:49:33.804Z,59.78
2018-04-17T22:52:06.337Z,59.87
2018-04-17T22:54:38.853Z,59.60
2018-04-17T22:57:11.365Z,59.76
2018-04-17T22:59:43.853Z,59.13
2018-04-17T23:02:16.361Z,59.29
2018-04-17T23:04:48.935Z,59.23
2018-04-17T23:07:21.523Z,59.53
2018-04-17T23:09:54.018Z,59.48
2018-04-17T23:12:26.535Z,60.25
2018-04-17T23:14:59.033Z,60.13
2018-04-17T23:17:32.267Z,60.16
2018-04-17T23:20:04.812Z,60.02
2018-04-17T23:22:37.332Z,59.77
2018-04-17T23:25:10.042Z,59.67
2018-04-17T23:27:42.555Z,59.98
2018-04-17T23:30:15.106Z,59.83
2018-04-17T23:32:47.705Z,60.51
2018-04-17T23:35:20.224Z,60.10
2018-04-17T23:37:52.744Z,59.92
2018-04-17T23:40:25.240Z,60.06
2018-04-17T23:42:57.751Z,60.42
2018-04-17T23:45:30.695Z,60.57
2018-04-17T23:48:03.215Z,60.70
2018-04-17T23:50:35.712Z,60.32
2018-04-17T23:53:08.286Z,60.07
2018-04-17T23:55:40.788Z,60.44
2018-04-17T23:58:13.288Z,59.99
